sensor_id;sensor_type;location;lat;lon;timestamp;P1;durP1;ratioP1;P2;durP2;ratioP2
42978;SDS011;28616;44.746;19.678;2022-11-14T00:02:18;184.25;;;96.13;;
42978;SDS011;28616;44.746;19.678;2022-11-14T00:04:45;177.40;;;87.53;;
42978;SDS011;28616;44.746;19.678;2022-11-14T00:07:11;126.93;;;63.70;;
42978;SDS011;28616;44.746;19.678;2022-11-14T00:09:37;120.75;;;62.80;;
42978;SDS011;28616;44.746;19.678;2022-11-14T00:12:07;104.00;;;54.78;;
42978;SDS011;28616;44.746;19.678;2022-11-14T00:14:33;106.53;;;54.65;;
42978;SDS011;28616;44.746;19.678;2022-11-14T00:17:00;100.72;;;54.97;;
42978;SDS011;28616;44.746;19.678;2022-11-14T00:19:26;103.40;;;53.97;;
42978;SDS011;28616;44.746;19.678;2022-11-14T00:21:52;119.22;;;64.68;;
42978;SDS011;28616;44.746;19.678;2022-11-14T00:24:18;110.35;;;62.92;;
42978;SDS011;28616;44.746;19.678;2022-11-14T00:26:44;117.97;;;63.90;;
42978;SDS011;28616;44.746;19.678;2022-11-14T00:29:11;118.03;;;60.33;;
42978;SDS011;28616;44.746;19.678;2022-11-14T00:31:37;122.32;;;63.38;;
42978;SDS011;28616;44.746;19.678;2022-11-14T00:34:03;125.10;;;62.75;;
42978;SDS011;28616;44.746;19.678;2022-11-14T00:36:30;120.15;;;63.22;;
42978;SDS011;28616;44.746;19.678;2022-11-14T00:38:56;110.18;;;60.45;;
42978;SDS011;28616;44.746;19.678;2022-11-14T00:41:22;121.60;;;64.07;;
42978;SDS011;28616;44.746;19.678;2022-11-14T00:43:47;133.55;;;68.32;;
42978;SDS011;28616;44.746;19.678;2022-11-14T00:46:13;146.25;;;77.90;;
42978;SDS011;28616;44.746;19.678;2022-11-14T00:48:39;149.73;;;74.82;;
42978;SDS011;28616;44.746;19.678;2022-11-14T00:51:05;146.50;;;76.07;;
42978;SDS011;28616;44.746;19.678;2022-11-14T00:53:31;154.05;;;79.47;;
42978;SDS011;28616;44.746;19.678;2022-11-14T00:55:57;155.02;;;79.35;;
42978;SDS011;28616;44.746;19.678;2022-11-14T00:58:22;162.60;;;81.97;;
42978;SDS011;28616;44.746;19.678;2022-11-14T01:00:48;191.82;;;95.53;;
42978;SDS011;28616;44.746;19.678;2022-11-14T01:03:14;195.60;;;96.40;;
42978;SDS011;28616;44.746;19.678;2022-11-14T01:05:43;180.25;;;92.88;;
42978;SDS011;28616;44.746;19.678;2022-11-14T01:08:11;170.45;;;89.85;;
42978;SDS011;28616;44.746;19.678;2022-11-14T01:10:48;166.77;;;88.18;;
42978;SDS011;28616;44.746;19.678;2022-11-14T01:13:15;164.73;;;84.18;;
42978;SDS011;28616;44.746;19.678;2022-11-14T01:15:43;195.07;;;98.25;;
42978;SDS011;28616;44.746;19.678;2022-11-14T01:18:12;218.45;;;111.13;;
42978;SDS011;28616;44.746;19.678;2022-11-14T01:20:40;281.02;;;132.82;;
42978;SDS011;28616;44.746;19.678;2022-11-14T01:23:07;284.67;;;125.72;;
42978;SDS011;28616;44.746;19.678;2022-11-14T01:25:35;681.22;;;247.10;;
42978;SDS011;28616;44.746;19.678;2022-11-14T01:28:01;433.75;;;166.55;;
42978;SDS011;28616;44.746;19.678;2022-11-14T01:30:31;367.83;;;146.70;;
42978;SDS011;28616;44.746;19.678;2022-11-14T01:32:56;241.85;;;110.68;;
42978;SDS011;28616;44.746;19.678;2022-11-14T01:35:22;178.95;;;93.55;;
42978;SDS011;28616;44.746;19.678;2022-11-14T01:37:48;188.10;;;96.28;;
42978;SDS011;28616;44.746;19.678;2022-11-14T01:40:14;181.82;;;88.72;;
42978;SDS011;28616;44.746;19.678;2022-11-14T01:42:40;165.77;;;85.80;;
42978;SDS011;28616;44.746;19.678;2022-11-14T01:53:50;155.27;;;82.75;;
42978;SDS011;28616;44.746;19.678;2022-11-14T01:56:19;143.95;;;82.47;;
42978;SDS011;28616;44.746;19.678;2022-11-14T01:58:51;144.07;;;76.95;;
42978;SDS011;28616;44.746;19.678;2022-11-14T02:01:22;160.38;;;84.30;;
42978;SDS011;28616;44.746;19.678;2022-11-14T02:03:50;170.70;;;87.20;;
42978;SDS011;28616;44.746;19.678;2022-11-14T02:06:19;188.85;;;92.50;;
42978;SDS011;28616;44.746;19.678;2022-11-14T02:08:47;187.30;;;91.72;;
42978;SDS011;28616;44.746;19.678;2022-11-14T02:11:14;189.75;;;90.07;;
42978;SDS011;28616;44.746;19.678;2022-11-14T02:13:40;209.98;;;92.68;;
42978;SDS011;28616;44.746;19.678;2022-11-14T02:16:06;279.92;;;108.18;;
42978;SDS011;28616;44.746;19.678;2022-11-14T02:18:32;271.42;;;107.78;;
42978;SDS011;28616;44.746;19.678;2022-11-14T02:20:58;264.60;;;105.95;;
42978;SDS011;28616;44.746;19.678;2022-11-14T02:23:27;243.70;;;105.22;;
42978;SDS011;28616;44.746;19.678;2022-11-14T02:25:55;238.02;;;99.78;;
42978;SDS011;28616;44.746;19.678;2022-11-14T02:28:22;300.02;;;113.95;;
42978;SDS011;28616;44.746;19.678;2022-11-14T02:30:48;545.30;;;135.45;;
42978;SDS011;28616;44.746;19.678;2022-11-14T02:33:14;416.63;;;130.45;;
42978;SDS011;28616;44.746;19.678;2022-11-14T02:35:40;338.17;;;115.78;;
42978;SDS011;28616;44.746;19.678;2022-11-14T02:38:06;330.10;;;120.40;;
42978;SDS011;28616;44.746;19.678;2022-11-14T02:40:32;345.30;;;121.47;;
42978;SDS011;28616;44.746;19.678;2022-11-14T02:42:58;306.38;;;116.75;;
42978;SDS011;28616;44.746;19.678;2022-11-14T02:45:24;377.50;;;138.02;;
42978;SDS011;28616;44.746;19.678;2022-11-14T02:47:50;356.92;;;137.85;;
42978;SDS011;28616;44.746;19.678;2022-11-14T02:50:16;373.13;;;134.60;;
42978;SDS011;28616;44.746;19.678;2022-11-14T02:52:42;338.38;;;124.82;;
42978;SDS011;28616;44.746;19.678;2022-11-14T02:55:08;326.75;;;122.70;;
42978;SDS011;28616;44.746;19.678;2022-11-14T02:57:34;311.05;;;120.85;;
42978;SDS011;28616;44.746;19.678;2022-11-14T03:00:00;295.25;;;115.57;;
42978;SDS011;28616;44.746;19.678;2022-11-14T03:02:26;295.27;;;117.90;;
42978;SDS011;28616;44.746;19.678;2022-11-14T03:04:51;292.75;;;117.68;;
42978;SDS011;28616;44.746;19.678;2022-11-14T03:07:17;285.02;;;119.70;;
42978;SDS011;28616;44.746;19.678;2022-11-14T03:09:43;264.25;;;111.25;;
42978;SDS011;28616;44.746;19.678;2022-11-14T03:12:09;255.73;;;108.93;;
42978;SDS011;28616;44.746;19.678;2022-11-14T03:14:35;276.42;;;118.03;;
42978;SDS011;28616;44.746;19.678;2022-11-14T03:17:00;283.63;;;122.13;;
42978;SDS011;28616;44.746;19.678;2022-11-14T03:19:26;303.63;;;128.35;;
42978;SDS011;28616;44.746;19.678;2022-11-14T03:21:52;283.42;;;123.78;;
42978;SDS011;28616;44.746;19.678;2022-11-14T03:24:18;280.42;;;123.65;;
42978;SDS011;28616;44.746;19.678;2022-11-14T03:26:43;260.67;;;118.63;;
42978;SDS011;28616;44.746;19.678;2022-11-14T03:29:09;251.80;;;115.35;;
42978;SDS011;28616;44.746;19.678;2022-11-14T03:31:35;268.50;;;119.10;;
42978;SDS011;28616;44.746;19.678;2022-11-14T03:34:01;241.93;;;111.38;;
42978;SDS011;28616;44.746;19.678;2022-11-14T03:36:26;210.32;;;97.18;;
42978;SDS011;28616;44.746;19.678;2022-11-14T03:38:52;200.57;;;95.07;;
42978;SDS011;28616;44.746;19.678;2022-11-14T03:41:18;184.35;;;86.80;;
42978;SDS011;28616;44.746;19.678;2022-11-14T03:43:44;171.35;;;83.82;;
42978;SDS011;28616;44.746;19.678;2022-11-14T03:46:09;182.75;;;82.82;;
42978;SDS011;28616;44.746;19.678;2022-11-14T03:48:35;174.02;;;83.47;;
42978;SDS011;28616;44.746;19.678;2022-11-14T03:51:01;176.63;;;86.47;;
42978;SDS011;28616;44.746;19.678;2022-11-14T03:53:26;161.35;;;80.22;;
42978;SDS011;28616;44.746;19.678;2022-11-14T03:55:52;170.60;;;82.07;;
42978;SDS011;28616;44.746;19.678;2022-11-14T03:58:19;140.80;;;69.93;;
42978;SDS011;28616;44.746;19.678;2022-11-14T04:00:44;140.10;;;69.78;;
42978;SDS011;28616;44.746;19.678;2022-11-14T04:03:10;144.40;;;72.55;;
42978;SDS011;28616;44.746;19.678;2022-11-14T04:05:36;162.13;;;86.30;;
42978;SDS011;28616;44.746;19.678;2022-11-14T04:08:05;167.43;;;86.88;;
42978;SDS011;28616;44.746;19.678;2022-11-14T04:10:31;170.38;;;86.35;;
42978;SDS011;28616;44.746;19.678;2022-11-14T04:12:57;212.25;;;94.50;;
42978;SDS011;28616;44.746;19.678;2022-11-14T04:15:23;212.10;;;94.03;;
42978;SDS011;28616;44.746;19.678;2022-11-14T04:17:48;310.52;;;103.50;;
42978;SDS011;28616;44.746;19.678;2022-11-14T04:20:15;255.07;;;102.10;;
42978;SDS011;28616;44.746;19.678;2022-11-14T04:22:41;268.00;;;106.70;;
42978;SDS011;28616;44.746;19.678;2022-11-14T04:25:07;275.52;;;106.25;;
42978;SDS011;28616;44.746;19.678;2022-11-14T04:27:33;264.23;;;105.85;;
42978;SDS011;28616;44.746;19.678;2022-11-14T04:29:59;252.15;;;107.45;;
42978;SDS011;28616;44.746;19.678;2022-11-14T04:32:25;286.92;;;115.07;;
42978;SDS011;28616;44.746;19.678;2022-11-14T04:34:51;255.40;;;107.82;;
42978;SDS011;28616;44.746;19.678;2022-11-14T04:37:17;279.25;;;116.53;;
42978;SDS011;28616;44.746;19.678;2022-11-14T04:39:42;273.20;;;120.50;;
42978;SDS011;28616;44.746;19.678;2022-11-14T04:42:08;252.77;;;110.40;;
42978;SDS011;28616;44.746;19.678;2022-11-14T04:44:34;233.23;;;101.95;;
42978;SDS011;28616;44.746;19.678;2022-11-14T04:47:00;220.15;;;97.57;;
42978;SDS011;28616;44.746;19.678;2022-11-14T04:49:25;232.80;;;98.05;;
42978;SDS011;28616;44.746;19.678;2022-11-14T04:51:51;212.85;;;94.35;;
42978;SDS011;28616;44.746;19.678;2022-11-14T04:54:17;225.18;;;95.55;;
42978;SDS011;28616;44.746;19.678;2022-11-14T04:56:43;190.18;;;88.47;;
42978;SDS011;28616;44.746;19.678;2022-11-14T04:59:08;232.60;;;94.60;;
42978;SDS011;28616;44.746;19.678;2022-11-14T05:01:34;224.95;;;95.40;;
42978;SDS011;28616;44.746;19.678;2022-11-14T05:04:00;250.52;;;97.18;;
42978;SDS011;28616;44.746;19.678;2022-11-14T05:06:26;268.95;;;101.30;;
42978;SDS011;28616;44.746;19.678;2022-11-14T05:08:52;226.55;;;92.03;;
42978;SDS011;28616;44.746;19.678;2022-11-14T05:11:18;257.55;;;103.18;;
42978;SDS011;28616;44.746;19.678;2022-11-14T05:13:44;237.50;;;101.68;;
42978;SDS011;28616;44.746;19.678;2022-11-14T05:16:11;218.63;;;92.30;;
42978;SDS011;28616;44.746;19.678;2022-11-14T05:18:37;210.45;;;91.05;;
42978;SDS011;28616;44.746;19.678;2022-11-14T05:21:03;209.70;;;88.75;;
42978;SDS011;28616;44.746;19.678;2022-11-14T05:23:29;222.07;;;100.15;;
42978;SDS011;28616;44.746;19.678;2022-11-14T05:26:02;222.27;;;97.72;;
42978;SDS011;28616;44.746;19.678;2022-11-14T05:28:30;223.82;;;97.95;;
42978;SDS011;28616;44.746;19.678;2022-11-14T05:31:02;201.93;;;91.15;;
42978;SDS011;28616;44.746;19.678;2022-11-14T05:33:29;194.23;;;85.22;;
42978;SDS011;28616;44.746;19.678;2022-11-14T05:36:00;175.07;;;78.38;;
42978;SDS011;28616;44.746;19.678;2022-11-14T05:38:30;168.63;;;77.25;;
42978;SDS011;28616;44.746;19.678;2022-11-14T05:40:56;156.60;;;74.47;;
42978;SDS011;28616;44.746;19.678;2022-11-14T05:43:22;143.93;;;72.40;;
42978;SDS011;28616;44.746;19.678;2022-11-14T05:45:48;169.10;;;83.70;;
42978;SDS011;28616;44.746;19.678;2022-11-14T05:48:14;163.18;;;79.25;;
42978;SDS011;28616;44.746;19.678;2022-11-14T05:50:40;285.73;;;148.60;;
42978;SDS011;28616;44.746;19.678;2022-11-14T05:53:05;279.73;;;147.73;;
42978;SDS011;28616;44.746;19.678;2022-11-14T05:55:31;205.73;;;101.82;;
42978;SDS011;28616;44.746;19.678;2022-11-14T05:57:57;166.98;;;83.88;;
42978;SDS011;28616;44.746;19.678;2022-11-14T06:00:24;149.90;;;76.60;;
42978;SDS011;28616;44.746;19.678;2022-11-14T06:02:53;143.48;;;74.45;;
42978;SDS011;28616;44.746;19.678;2022-11-14T06:05:20;148.35;;;77.95;;
42978;SDS011;28616;44.746;19.678;2022-11-14T06:07:47;154.90;;;79.20;;
42978;SDS011;28616;44.746;19.678;2022-11-14T06:10:18;157.80;;;85.07;;
42978;SDS011;28616;44.746;19.678;2022-11-14T06:12:44;161.35;;;84.95;;
42978;SDS011;28616;44.746;19.678;2022-11-14T06:15:11;157.13;;;82.40;;
42978;SDS011;28616;44.746;19.678;2022-11-14T06:17:36;174.60;;;97.47;;
42978;SDS011;28616;44.746;19.678;2022-11-14T06:20:02;197.38;;;106.85;;
42978;SDS011;28616;44.746;19.678;2022-11-14T06:22:29;176.38;;;88.47;;
42978;SDS011;28616;44.746;19.678;2022-11-14T06:24:58;175.65;;;87.32;;
42978;SDS011;28616;44.746;19.678;2022-11-14T06:27:27;181.32;;;89.93;;
42978;SDS011;28616;44.746;19.678;2022-11-14T06:29:52;160.85;;;83.32;;
42978;SDS011;28616;44.746;19.678;2022-11-14T06:32:18;166.55;;;76.72;;
42978;SDS011;28616;44.746;19.678;2022-11-14T06:34:44;171.40;;;79.50;;
42978;SDS011;28616;44.746;19.678;2022-11-14T06:37:10;171.95;;;81.25;;
42978;SDS011;28616;44.746;19.678;2022-11-14T06:39:35;165.82;;;85.05;;
42978;SDS011;28616;44.746;19.678;2022-11-14T06:42:01;199.85;;;100.32;;
42978;SDS011;28616;44.746;19.678;2022-11-14T06:44:27;218.95;;;109.03;;
42978;SDS011;28616;44.746;19.678;2022-11-14T06:46:53;180.80;;;90.35;;
42978;SDS011;28616;44.746;19.678;2022-11-14T06:49:18;184.90;;;97.00;;
42978;SDS011;28616;44.746;19.678;2022-11-14T06:51:44;167.48;;;83.93;;
42978;SDS011;28616;44.746;19.678;2022-11-14T06:54:10;153.65;;;80.80;;
42978;SDS011;28616;44.746;19.678;2022-11-14T06:56:36;170.25;;;84.43;;
42978;SDS011;28616;44.746;19.678;2022-11-14T06:59:02;167.68;;;82.53;;
42978;SDS011;28616;44.746;19.678;2022-11-14T07:01:28;155.70;;;78.45;;
42978;SDS011;28616;44.746;19.678;2022-11-14T07:03:54;171.30;;;83.30;;
42978;SDS011;28616;44.746;19.678;2022-11-14T07:06:23;168.15;;;82.32;;
42978;SDS011;28616;44.746;19.678;2022-11-14T07:08:51;184.02;;;84.30;;
42978;SDS011;28616;44.746;19.678;2022-11-14T07:11:19;175.93;;;78.05;;
42978;SDS011;28616;44.746;19.678;2022-11-14T07:13:50;201.57;;;83.80;;
42978;SDS011;28616;44.746;19.678;2022-11-14T07:16:16;212.18;;;84.57;;
42978;SDS011;28616;44.746;19.678;2022-11-14T07:18:42;263.90;;;95.40;;
42978;SDS011;28616;44.746;19.678;2022-11-14T07:21:08;302.95;;;96.60;;
42978;SDS011;28616;44.746;19.678;2022-11-14T07:23:38;271.75;;;101.57;;
42978;SDS011;28616;44.746;19.678;2022-11-14T07:26:05;377.30;;;116.78;;
42978;SDS011;28616;44.746;19.678;2022-11-14T07:28:36;319.48;;;107.70;;
42978;SDS011;28616;44.746;19.678;2022-11-14T07:31:03;412.90;;;106.35;;
42978;SDS011;28616;44.746;19.678;2022-11-14T07:33:30;291.65;;;104.38;;
42978;SDS011;28616;44.746;19.678;2022-11-14T07:35:56;391.30;;;94.03;;
42978;SDS011;28616;44.746;19.678;2022-11-14T07:38:22;370.20;;;86.57;;
42978;SDS011;28616;44.746;19.678;2022-11-14T07:40:58;312.73;;;95.93;;
42978;SDS011;28616;44.746;19.678;2022-11-14T07:43:25;284.83;;;94.93;;
42978;SDS011;28616;44.746;19.678;2022-11-14T07:45:51;306.50;;;100.30;;
42978;SDS011;28616;44.746;19.678;2022-11-14T07:48:17;314.80;;;97.45;;
42978;SDS011;28616;44.746;19.678;2022-11-14T07:50:45;278.58;;;102.25;;
42978;SDS011;28616;44.746;19.678;2022-11-14T07:53:12;281.20;;;106.75;;
42978;SDS011;28616;44.746;19.678;2022-11-14T07:55:39;257.88;;;103.93;;
42978;SDS011;28616;44.746;19.678;2022-11-14T07:58:05;259.30;;;107.78;;
42978;SDS011;28616;44.746;19.678;2022-11-14T08:00:31;268.50;;;103.28;;
42978;SDS011;28616;44.746;19.678;2022-11-14T08:02:56;238.15;;;92.55;;
42978;SDS011;28616;44.746;19.678;2022-11-14T08:05:22;246.00;;;105.50;;
42978;SDS011;28616;44.746;19.678;2022-11-14T08:07:51;258.25;;;106.60;;
42978;SDS011;28616;44.746;19.678;2022-11-14T08:10:17;259.48;;;113.97;;
42978;SDS011;28616;44.746;19.678;2022-11-14T08:12:44;226.55;;;95.68;;
42978;SDS011;28616;44.746;19.678;2022-11-14T08:15:11;232.90;;;100.45;;
42978;SDS011;28616;44.746;19.678;2022-11-14T08:17:38;271.48;;;104.93;;
42978;SDS011;28616;44.746;19.678;2022-11-14T08:20:04;222.65;;;95.60;;
42978;SDS011;28616;44.746;19.678;2022-11-14T08:22:31;249.30;;;95.13;;
42978;SDS011;28616;44.746;19.678;2022-11-14T08:24:57;233.00;;;94.75;;
42978;SDS011;28616;44.746;19.678;2022-11-14T08:27:23;211.90;;;88.40;;
42978;SDS011;28616;44.746;19.678;2022-11-14T08:29:49;217.48;;;88.25;;
42978;SDS011;28616;44.746;19.678;2022-11-14T08:32:16;203.25;;;85.38;;
42978;SDS011;28616;44.746;19.678;2022-11-14T08:34:42;221.20;;;97.00;;
42978;SDS011;28616;44.746;19.678;2022-11-14T08:37:08;209.15;;;87.90;;
42978;SDS011;28616;44.746;19.678;2022-11-14T08:39:34;211.50;;;91.60;;
42978;SDS011;28616;44.746;19.678;2022-11-14T08:42:00;223.18;;;92.07;;
42978;SDS011;28616;44.746;19.678;2022-11-14T08:44:25;218.65;;;91.88;;
42978;SDS011;28616;44.746;19.678;2022-11-14T08:46:51;235.13;;;99.45;;
42978;SDS011;28616;44.746;19.678;2022-11-14T08:49:17;223.50;;;101.43;;
42978;SDS011;28616;44.746;19.678;2022-11-14T08:51:43;209.05;;;88.22;;
42978;SDS011;28616;44.746;19.678;2022-11-14T08:54:09;209.48;;;91.50;;
42978;SDS011;28616;44.746;19.678;2022-11-14T08:56:34;238.57;;;101.72;;
42978;SDS011;28616;44.746;19.678;2022-11-14T08:59:03;224.38;;;99.63;;
42978;SDS011;28616;44.746;19.678;2022-11-14T09:01:29;206.60;;;94.68;;
42978;SDS011;28616;44.746;19.678;2022-11-14T09:03:57;193.10;;;86.30;;
42978;SDS011;28616;44.746;19.678;2022-11-14T09:06:23;207.95;;;93.82;;
42978;SDS011;28616;44.746;19.678;2022-11-14T09:08:49;188.52;;;85.18;;
42978;SDS011;28616;44.746;19.678;2022-11-14T09:11:15;182.23;;;85.20;;
42978;SDS011;28616;44.746;19.678;2022-11-14T09:13:40;176.25;;;84.28;;
42978;SDS011;28616;44.746;19.678;2022-11-14T09:16:06;176.40;;;83.30;;
42978;SDS011;28616;44.746;19.678;2022-11-14T09:18:32;186.25;;;86.40;;
42978;SDS011;28616;44.746;19.678;2022-11-14T09:21:01;168.25;;;78.88;;
42978;SDS011;28616;44.746;19.678;2022-11-14T09:23:29;159.00;;;79.28;;
42978;SDS011;28616;44.746;19.678;2022-11-14T09:25:54;165.90;;;78.13;;
42978;SDS011;28616;44.746;19.678;2022-11-14T09:28:21;185.65;;;89.22;;
42978;SDS011;28616;44.746;19.678;2022-11-14T09:30:48;171.30;;;82.95;;
42978;SDS011;28616;44.746;19.678;2022-11-14T09:33:14;213.75;;;100.32;;
42978;SDS011;28616;44.746;19.678;2022-11-14T09:35:40;173.98;;;85.78;;
42978;SDS011;28616;44.746;19.678;2022-11-14T09:38:07;164.05;;;83.20;;
42978;SDS011;28616;44.746;19.678;2022-11-14T09:41:18;147.05;;;74.38;;
42978;SDS011;28616;44.746;19.678;2022-11-14T09:43:28;204.88;;;102.05;;
42978;SDS011;28616;44.746;19.678;2022-11-14T09:45:59;132.80;;;70.03;;
42978;SDS011;28616;44.746;19.678;2022-11-14T09:48:27;139.07;;;71.47;;
42978;SDS011;28616;44.746;19.678;2022-11-14T09:51:03;135.82;;;71.70;;
42978;SDS011;28616;44.746;19.678;2022-11-14T09:56:30;159.35;;;80.63;;
42978;SDS011;28616;44.746;19.678;2022-11-14T09:58:55;142.00;;;75.78;;
42978;SDS011;28616;44.746;19.678;2022-11-14T10:04:30;154.90;;;81.75;;
42978;SDS011;28616;44.746;19.678;2022-11-14T10:12:35;134.27;;;70.00;;
42978;SDS011;28616;44.746;19.678;2022-11-14T10:15:13;154.85;;;83.78;;
42978;SDS011;28616;44.746;19.678;2022-11-14T10:20:23;137.75;;;74.22;;
42978;SDS011;28616;44.746;19.678;2022-11-14T10:34:07;126.32;;;68.70;;
42978;SDS011;28616;44.746;19.678;2022-11-14T10:36:52;122.60;;;65.25;;
42978;SDS011;28616;44.746;19.678;2022-11-14T10:39:21;133.00;;;75.40;;
42978;SDS011;28616;44.746;19.678;2022-11-14T10:41:55;127.10;;;69.72;;
42978;SDS011;28616;44.746;19.678;2022-11-14T10:44:27;123.10;;;69.65;;
42978;SDS011;28616;44.746;19.678;2022-11-14T10:47:01;118.63;;;66.88;;
42978;SDS011;28616;44.746;19.678;2022-11-14T10:49:34;135.18;;;70.15;;
42978;SDS011;28616;44.746;19.678;2022-11-14T10:52:02;119.38;;;67.57;;
42978;SDS011;28616;44.746;19.678;2022-11-14T10:54:34;130.25;;;73.47;;
42978;SDS011;28616;44.746;19.678;2022-11-14T10:57:12;131.15;;;71.05;;
42978;SDS011;28616;44.746;19.678;2022-11-14T10:59:43;113.75;;;67.40;;
42978;SDS011;28616;44.746;19.678;2022-11-14T11:02:09;125.10;;;71.38;;
42978;SDS011;28616;44.746;19.678;2022-11-14T11:04:42;132.20;;;75.45;;
42978;SDS011;28616;44.746;19.678;2022-11-14T11:09:58;132.73;;;73.50;;
42978;SDS011;28616;44.746;19.678;2022-11-14T11:12:47;125.28;;;72.45;;
42978;SDS011;28616;44.746;19.678;2022-11-14T11:15:17;121.25;;;71.47;;
42978;SDS011;28616;44.746;19.678;2022-11-14T11:18:25;120.07;;;70.07;;
42978;SDS011;28616;44.746;19.678;2022-11-14T11:21:25;138.75;;;77.80;;
42978;SDS011;28616;44.746;19.678;2022-11-14T11:23:49;125.82;;;74.50;;
42978;SDS011;28616;44.746;19.678;2022-11-14T11:26:19;126.15;;;73.88;;
42978;SDS011;28616;44.746;19.678;2022-11-14T11:34:32;142.77;;;77.57;;
42978;SDS011;28616;44.746;19.678;2022-11-14T11:37:09;190.18;;;101.97;;
42978;SDS011;28616;44.746;19.678;2022-11-14T11:39:42;160.68;;;87.50;;
42978;SDS011;28616;44.746;19.678;2022-11-14T11:42:20;156.23;;;90.00;;
42978;SDS011;28616;44.746;19.678;2022-11-14T11:44:52;146.75;;;83.78;;
42978;SDS011;28616;44.746;19.678;2022-11-14T11:47:23;128.05;;;76.72;;
42978;SDS011;28616;44.746;19.678;2022-11-14T11:49:51;138.32;;;78.03;;
42978;SDS011;28616;44.746;19.678;2022-11-14T11:52:30;170.23;;;94.15;;
42978;SDS011;28616;44.746;19.678;2022-11-14T11:55:00;127.53;;;76.13;;
42978;SDS011;28616;44.746;19.678;2022-11-14T11:57:34;147.95;;;72.18;;
42978;SDS011;28616;44.746;19.678;2022-11-14T12:00:06;139.95;;;66.68;;
42978;SDS011;28616;44.746;19.678;2022-11-14T12:02:40;104.60;;;65.00;;
42978;SDS011;28616;44.746;19.678;2022-11-14T12:05:12;107.57;;;63.47;;
42978;SDS011;28616;44.746;19.678;2022-11-14T12:07:45;111.30;;;60.40;;
42978;SDS011;28616;44.746;19.678;2022-11-14T12:10:31;100.60;;;59.83;;
42978;SDS011;28616;44.746;19.678;2022-11-14T12:15:42;102.22;;;59.63;;
42978;SDS011;28616;44.746;19.678;2022-11-14T12:18:34;99.40;;;57.65;;
42978;SDS011;28616;44.746;19.678;2022-11-14T12:21:11;97.95;;;57.72;;
42978;SDS011;28616;44.746;19.678;2022-11-14T12:26:21;98.78;;;56.30;;
42978;SDS011;28616;44.746;19.678;2022-11-14T12:29:03;102.28;;;58.20;;
42978;SDS011;28616;44.746;19.678;2022-11-14T12:31:39;101.55;;;58.70;;
42978;SDS011;28616;44.746;19.678;2022-11-14T12:34:12;104.05;;;58.90;;
42978;SDS011;28616;44.746;19.678;2022-11-14T12:37:09;139.82;;;76.13;;
42978;SDS011;28616;44.746;19.678;2022-11-14T12:39:39;99.30;;;56.42;;
42978;SDS011;28616;44.746;19.678;2022-11-14T12:42:06;103.93;;;58.20;;
42978;SDS011;28616;44.746;19.678;2022-11-14T12:44:39;118.18;;;61.88;;
42978;SDS011;28616;44.746;19.678;2022-11-14T12:49:35;134.43;;;72.35;;
42978;SDS011;28616;44.746;19.678;2022-11-14T12:57:49;127.07;;;75.20;;
42978;SDS011;28616;44.746;19.678;2022-11-14T13:06:03;108.88;;;62.10;;
42978;SDS011;28616;44.746;19.678;2022-11-14T13:08:54;112.53;;;63.15;;
42978;SDS011;28616;44.746;19.678;2022-11-14T13:14:18;115.38;;;65.47;;
42978;SDS011;28616;44.746;19.678;2022-11-14T13:20:00;120.00;;;67.45;;
42978;SDS011;28616;44.746;19.678;2022-11-14T13:33:57;109.63;;;64.72;;
42978;SDS011;28616;44.746;19.678;2022-11-14T13:36:33;160.77;;;88.05;;
42978;SDS011;28616;44.746;19.678;2022-11-14T13:50:07;167.93;;;89.78;;
42978;SDS011;28616;44.746;19.678;2022-11-14T13:52:42;154.38;;;86.70;;
42978;SDS011;28616;44.746;19.678;2022-11-14T13:58:49;158.43;;;89.47;;
42978;SDS011;28616;44.746;19.678;2022-11-14T14:01:20;160.05;;;92.20;;
42978;SDS011;28616;44.746;19.678;2022-11-14T14:12:58;156.60;;;89.35;;
42978;SDS011;28616;44.746;19.678;2022-11-14T14:16:00;141.95;;;80.03;;
42978;SDS011;28616;44.746;19.678;2022-11-14T14:21:12;145.15;;;85.22;;
42978;SDS011;28616;44.746;19.678;2022-11-14T14:32:13;325.40;;;182.38;;
42978;SDS011;28616;44.746;19.678;2022-11-14T14:34:40;254.43;;;142.45;;
42978;SDS011;28616;44.746;19.678;2022-11-14T14:37:17;201.77;;;114.95;;
42978;SDS011;28616;44.746;19.678;2022-11-14T14:39:56;222.45;;;124.40;;
42978;SDS011;28616;44.746;19.678;2022-11-14T14:42:23;273.98;;;154.65;;
42978;SDS011;28616;44.746;19.678;2022-11-14T14:44:51;258.85;;;148.65;;
42978;SDS011;28616;44.746;19.678;2022-11-14T14:49:57;250.93;;;140.88;;
42978;SDS011;28616;44.746;19.678;2022-11-14T14:52:34;240.05;;;133.82;;
42978;SDS011;28616;44.746;19.678;2022-11-14T14:55:01;265.33;;;150.10;;
42978;SDS011;28616;44.746;19.678;2022-11-14T14:57:30;308.15;;;170.82;;
42978;SDS011;28616;44.746;19.678;2022-11-14T14:59:57;338.80;;;183.45;;
42978;SDS011;28616;44.746;19.678;2022-11-14T15:02:24;364.10;;;208.82;;
42978;SDS011;28616;44.746;19.678;2022-11-14T15:04:51;386.20;;;220.90;;
42978;SDS011;28616;44.746;19.678;2022-11-14T15:07:22;441.38;;;255.77;;
42978;SDS011;28616;44.746;19.678;2022-11-14T15:09:59;665.55;;;344.20;;
42978;SDS011;28616;44.746;19.678;2022-11-14T15:12:28;451.33;;;239.30;;
42978;SDS011;28616;44.746;19.678;2022-11-14T15:14:55;353.23;;;191.65;;
42978;SDS011;28616;44.746;19.678;2022-11-14T15:17:22;351.70;;;187.48;;
42978;SDS011;28616;44.746;19.678;2022-11-14T15:19:50;347.60;;;186.90;;
42978;SDS011;28616;44.746;19.678;2022-11-14T15:24:42;329.30;;;181.88;;
42978;SDS011;28616;44.746;19.678;2022-11-14T15:27:18;342.15;;;186.18;;
42978;SDS011;28616;44.746;19.678;2022-11-14T15:29:45;474.40;;;272.15;;
42978;SDS011;28616;44.746;19.678;2022-11-14T15:32:16;508.33;;;274.70;;
42978;SDS011;28616;44.746;19.678;2022-11-14T15:35:30;462.98;;;255.63;;
42978;SDS011;28616;44.746;19.678;2022-11-14T15:41:07;504.90;;;281.73;;
42978;SDS011;28616;44.746;19.678;2022-11-14T15:43:48;549.17;;;312.27;;
42978;SDS011;28616;44.746;19.678;2022-11-14T15:49:21;505.67;;;284.40;;
42978;SDS011;28616;44.746;19.678;2022-11-14T15:56:46;517.75;;;326.80;;
42978;SDS011;28616;44.746;19.678;2022-11-14T15:59:12;509.30;;;316.52;;
42978;SDS011;28616;44.746;19.678;2022-11-14T16:01:38;536.80;;;325.40;;
42978;SDS011;28616;44.746;19.678;2022-11-14T16:04:13;518.78;;;313.40;;
42978;SDS011;28616;44.746;19.678;2022-11-14T16:06:43;536.58;;;322.27;;
42978;SDS011;28616;44.746;19.678;2022-11-14T16:09:13;562.38;;;332.15;;
42978;SDS011;28616;44.746;19.678;2022-11-14T16:11:41;680.50;;;399.02;;
42978;SDS011;28616;44.746;19.678;2022-11-14T16:14:07;815.03;;;476.85;;